Sylmar, California
Current Conditions -  °F | °C
As of 3:51 PM on Wednesday 26 Nov 2014 (Local Time) from KVNY Reporting Station
Clear Clear  
Wind Chill: 85°   Ceiling: Unl
Heat Index: 85°   Visibility: 10mi
Dew Point: 19°   Wind: 5mph
Humidity: 9%   Direction: 120°ESE
Pressure: 30.14"   Gusts: NA
Location:  34.31°N, 118.45°W
Report Text: KVNY 262351Z 12004KT 10SM CLR 29/M07 A3014 RMK AO2 SLP198 60000 T02941072 10311 20222 56010
Loading
Personal Weather Stations






























Interactive Weather Map New forecast layout! Learn more

10-Day Weather Forecast

Advertisements
Track Severe Weather on mobile